Kenneth, Minnesota
Current Conditions -  °F | °C
As of 3:34 AM on Friday 24 Oct 2014 (Local Time) from KLYV Reporting Station
Clear Clear  
Wind Chill: 46°   Ceiling: Unl
Heat Index: 48°   Visibility: 10mi
Dew Point: 45°   Wind: 5mph
Humidity: 87%   Direction: 180°S
Pressure: 29.89"   Gusts: NA
Location:  43.75°N, 96.07°W
Report Text: KLYV 240834Z AUTO 18004KT 10SM CLR 09/07 A2989 RMK AO2
Loading
Personal Weather Stations






























Interactive Weather Map
Tropical Storm Tracking
New forecast layout! Learn more

10-Day Weather Forecast

Advertisements
Track Severe Weather on mobile